Time;durP1;ratioP1;P1;durP2;ratioP2;P2;SDS_P1;SDS_P2;PMS_P1;PMS_P2;Temp;Humidity;BMP_temperature;BMP_pressure;BME280_temperature;BME280_humidity;BME280_pressure;Samples;Min_cycle;Max_cycle;Signal;HPM_P1;HPM_P2
2022/04/13 00:01:47;;;;;;;0.10;0.10;;;;;;;;;;5011167;28;20034;-80
2022/04/13 00:04:14;;;;;;;0.07;0.07;;;;;;;;;;5012868;28;20033;-80
2022/04/13 00:06:40;;;;;;;;;;;;;;;;;;5014032;28;20284;-81
2022/04/13 00:09:07;;;;;;;0.45;0.30;;;;;;;;;;5011885;28;19948;-80
2022/04/13 00:11:33;;;;;;;0.05;0.05;;;;;;;;;;5008547;28;20934;-80
2022/04/13 00:13:59;;;;;;;0.20;0.20;;;;;;;;;;5006855;28;20068;-80
2022/04/13 00:16:25;;;;;;;0.03;0.03;;;;;;;;;;5005153;28;20041;-80
2022/04/13 00:18:51;;;;;;;0.10;0.10;;;;;;;;;;5007730;28;20896;-80
2022/04/13 00:21:17;;;;;;;0.20;0.20;;;;;;;;;;5005151;28;20914;-80
2022/04/13 00:23:43;;;;;;;0.10;0.10;;;;;;;;;;5012620;28;20029;-80
2022/04/13 00:26:09;;;;;;;0.03;0.03;;;;;;;;;;5009023;28;20029;-80
2022/04/13 00:28:36;;;;;;;0.30;0.30;;;;;;;;;;5005338;28;20100;-81
2022/04/13 00:31:02;;;;;;;0.10;0.10;;;;;;;;;;5008027;28;20037;-80
2022/04/13 00:33:28;;;;;;;0.10;0.10;;;;;;;;;;5008590;28;20033;-80
2022/04/13 00:35:55;;;;;;;0.47;0.33;;;;;;;;;;5004628;28;20038;-80
2022/04/13 00:38:22;;;;;;;0.00;0.00;;;;;;;;;;5009943;28;20038;-81
2022/04/13 00:40:48;;;;;;;;;;;;;;;;;;5006328;28;20593;-80
2022/04/13 00:43:14;;;;;;;0.52;0.30;;;;;;;;;;5003617;28;20008;-80
2022/04/13 00:45:43;;;;;;;0.10;0.10;;;;;;;;;;5002391;28;20052;-80
2022/04/13 00:48:10;;;;;;;0.10;0.10;;;;;;;;;;5007518;28;20121;-80
2022/04/13 00:50:36;;;;;;;0.15;0.15;;;;;;;;;;5004913;28;20674;-80
2022/04/13 00:53:04;;;;;;;0.10;0.10;;;;;;;;;;5014436;28;20079;-80
2022/04/13 00:55:31;;;;;;;0.13;0.13;;;;;;;;;;5004847;28;20100;-80
2022/04/13 00:57:58;;;;;;;0.00;0.00;;;;;;;;;;5008848;28;20034;-79
2022/04/13 01:00:24;;;;;;;0.10;0.10;;;;;;;;;;5014495;28;20517;-81
2022/04/13 01:02:53;;;;;;;0.10;0.10;;;;;;;;;;5006952;28;20404;-80
2022/04/13 01:05:21;;;;;;;19.75;0.95;;;;;;;;;;5009502;28;20045;-80
2022/04/13 01:07:48;;;;;;;0.00;0.00;;;;;;;;;;5012699;28;20167;-80
2022/04/13 01:10:14;;;;;;;;;;;;;;;;;;5033875;28;20038;-80
2022/04/13 01:12:40;;;;;;;0.10;0.10;;;;;;;;;;5008533;28;20384;-80
2022/04/13 01:15:06;;;;;;;0.20;0.20;;;;;;;;;;5003928;28;20034;-80
2022/04/13 01:17:32;;;;;;;0.47;0.13;;;;;;;;;;5016666;28;20496;-80
2022/04/13 01:20:01;;;;;;;0.00;0.00;;;;;;;;;;5017742;28;20594;-80
2022/04/13 01:22:27;;;;;;;0.08;0.08;;;;;;;;;;5011874;28;20044;-80
2022/04/13 01:24:53;;;;;;;0.00;0.00;;;;;;;;;;5004117;28;20030;-80
2022/04/13 01:27:19;;;;;;;0.40;0.40;;;;;;;;;;5012394;28;20030;-79
2022/04/13 01:29:48;;;;;;;0.30;0.30;;;;;;;;;;5010639;28;20368;-79
2022/04/13 01:32:14;;;;;;;0.32;0.32;;;;;;;;;;5006900;28;20060;-80
2022/04/13 01:34:47;;;;;;;0.20;0.20;;;;;;;;;;5008295;28;20026;-79
2022/04/13 01:37:13;;;;;;;0.10;0.10;;;;;;;;;;5008547;28;20033;-79
2022/04/13 01:39:39;;;;;;;0.10;0.10;;;;;;;;;;5006242;28;20036;-80
2022/04/13 01:42:05;;;;;;;0.10;0.10;;;;;;;;;;5013061;28;20398;-80
2022/04/13 01:44:31;;;;;;;0.00;0.00;;;;;;;;;;5034404;28;20056;-79
2022/04/13 01:46:57;;;;;;;0.10;0.10;;;;;;;;;;5002934;28;20566;-79
2022/04/13 01:49:23;;;;;;;0.10;0.10;;;;;;;;;;5003367;28;20037;-80
2022/04/13 01:51:49;;;;;;;0.20;0.20;;;;;;;;;;5008969;28;20026;-80
2022/04/13 01:54:15;;;;;;;0.23;0.23;;;;;;;;;;5015906;28;20088;-79
2022/04/13 01:56:41;;;;;;;0.00;0.00;;;;;;;;;;5006576;28;20032;-79
2022/04/13 01:59:07;;;;;;;0.20;0.20;;;;;;;;;;5012764;28;20065;-80
2022/04/13 02:01:35;;;;;;;0.30;0.30;;;;;;;;;;5008714;28;20114;-80
2022/04/13 02:04:01;;;;;;;0.05;0.05;;;;;;;;;;5012135;28;20120;-79
2022/04/13 02:06:27;;;;;;;3.30;1.27;;;;;;;;;;5012478;28;20061;-80
2022/04/13 02:08:53;;;;;;;1.07;0.97;;;;;;;;;;5004966;28;20053;-80
2022/04/13 02:11:19;;;;;;;0.00;0.00;;;;;;;;;;5008217;28;20287;-79
2022/04/13 02:13:45;;;;;;;0.10;0.10;;;;;;;;;;5012888;28;20602;-79
2022/04/13 02:18:47;;;;;;;1.40;0.73;;;;;;;;;;5040395;23;20881;-79
2022/04/13 02:21:13;;;;;;;0.10;0.10;;;;;;;;;;4945093;28;20042;-79
2022/04/13 02:23:40;;;;;;;0.22;0.22;;;;;;;;;;4946905;28;20027;-79
2022/04/13 02:26:06;;;;;;;0.38;0.38;;;;;;;;;;4946903;28;20039;-79
2022/04/13 02:28:32;;;;;;;0.33;0.33;;;;;;;;;;4943705;28;20035;-78
2022/04/13 02:30:58;;;;;;;0.40;0.40;;;;;;;;;;4943910;28;20068;-78
2022/04/13 02:33:25;;;;;;;0.57;0.57;;;;;;;;;;4944988;29;20031;-79
2022/04/13 02:35:51;;;;;;;8.48;1.88;;;;;;;;;;4943817;29;20283;-79
2022/04/13 02:38:17;;;;;;;0.88;0.20;;;;;;;;;;4958275;28;20389;-79
2022/04/13 02:40:44;;;;;;;0.00;0.00;;;;;;;;;;4946626;28;20068;-79
2022/04/13 02:43:11;;;;;;;0.25;0.25;;;;;;;;;;4944914;29;20499;-79
2022/04/13 02:45:36;;;;;;;0.55;0.30;;;;;;;;;;4945202;28;20066;-80
2022/04/13 02:48:03;;;;;;;0.05;0.05;;;;;;;;;;4943338;29;20122;-79
2022/04/13 02:50:29;;;;;;;0.27;0.27;;;;;;;;;;4945827;28;20049;-79
2022/04/13 02:52:56;;;;;;;1.93;1.03;;;;;;;;;;4945293;29;20783;-79
2022/04/13 02:55:22;;;;;;;2.08;1.58;;;;;;;;;;4943447;28;20055;-79
2022/04/13 02:57:48;;;;;;;0.08;0.08;;;;;;;;;;4940290;28;20081;-79
2022/04/13 03:00:15;;;;;;;0.00;0.00;;;;;;;;;;4945908;29;20039;-78
2022/04/13 03:02:41;;;;;;;0.20;0.20;;;;;;;;;;4937618;29;20031;-79
2022/04/13 03:05:08;;;;;;;0.10;0.10;;;;;;;;;;4945546;28;20043;-79
2022/04/13 03:07:34;;;;;;;0.40;0.40;;;;;;;;;;4945539;29;20393;-79
2022/04/13 03:10:00;;;;;;;0.20;0.20;;;;;;;;;;4943046;28;20417;-79
2022/04/13 03:12:26;;;;;;;0.22;0.22;;;;;;;;;;4943162;28;20032;-79
2022/04/13 03:14:52;;;;;;;0.03;0.03;;;;;;;;;;4944681;28;20043;-82
2022/04/13 03:17:19;;;;;;;0.17;0.17;;;;;;;;;;4944984;29;20039;-79
2022/04/13 03:19:45;;;;;;;0.20;0.20;;;;;;;;;;4944553;28;20035;-79
2022/04/13 03:22:11;;;;;;;0.07;0.07;;;;;;;;;;4943471;29;20035;-79
2022/04/13 03:24:37;;;;;;;0.55;0.50;;;;;;;;;;4944382;29;20348;-79
2022/04/13 03:27:03;;;;;;;0.47;0.30;;;;;;;;;;4944063;28;20212;-78
2022/04/13 03:29:29;;;;;;;0.10;0.10;;;;;;;;;;4945055;29;20151;-80
2022/04/13 03:31:56;;;;;;;6.57;0.45;;;;;;;;;;4946487;28;20048;-79
2022/04/13 03:34:22;;;;;;;0.20;0.20;;;;;;;;;;4944218;29;20035;-79
2022/04/13 03:36:51;;;;;;;0.10;0.10;;;;;;;;;;4945472;28;20035;-79
2022/04/13 03:39:17;;;;;;;0.10;0.10;;;;;;;;;;4945640;28;20031;-79
2022/04/13 03:41:43;;;;;;;0.10;0.10;;;;;;;;;;4944000;29;20030;-79
2022/04/13 03:44:09;;;;;;;0.15;0.15;;;;;;;;;;4946131;29;20134;-80
2022/04/13 03:46:35;;;;;;;17.93;0.50;;;;;;;;;;4944915;28;20098;-80
2022/04/13 03:49:01;;;;;;;0.10;0.10;;;;;;;;;;4942199;28;20369;-80
2022/04/13 03:51:27;;;;;;;0.10;0.10;;;;;;;;;;4942147;28;20035;-80
2022/04/13 03:53:53;;;;;;;1.00;0.63;;;;;;;;;;4944414;29;20090;-79
2022/04/13 03:56:19;;;;;;;0.10;0.10;;;;;;;;;;4944275;29;20035;-80
2022/04/13 03:58:46;;;;;;;0.10;0.10;;;;;;;;;;4943952;28;20837;-80
2022/04/13 04:01:12;;;;;;;1.27;0.83;;;;;;;;;;4944294;28;20035;-80
2022/04/13 04:03:38;;;;;;;0.27;0.27;;;;;;;;;;4943694;29;20027;-79
2022/04/13 04:06:04;;;;;;;0.65;0.22;;;;;;;;;;4944230;28;20408;-80
2022/04/13 04:08:35;;;;;;;0.15;0.15;;;;;;;;;;4943567;28;20435;-80
2022/04/13 04:11:01;;;;;;;0.32;0.30;;;;;;;;;;4943880;29;20082;-79
2022/04/13 04:13:27;;;;;;;0.67;0.67;;;;;;;;;;4942719;29;20065;-79
2022/04/13 04:15:53;;;;;;;0.17;0.10;;;;;;;;;;4942658;28;20767;-80
2022/04/13 04:18:19;;;;;;;0.55;0.55;;;;;;;;;;4943845;29;20046;-81
2022/04/13 04:20:45;;;;;;;0.73;0.73;;;;;;;;;;4943976;29;20049;-80
2022/04/13 04:23:11;;;;;;;0.20;0.20;;;;;;;;;;4945556;29;20058;-80
2022/04/13 04:25:37;;;;;;;0.32;0.32;;;;;;;;;;4942715;29;20117;-80
2022/04/13 04:28:06;;;;;;;0.53;0.53;;;;;;;;;;4942796;29;20050;-79
2022/04/13 04:30:32;;;;;;;0.63;0.57;;;;;;;;;;4943927;28;20023;-79
2022/04/13 04:32:58;;;;;;;0.10;0.10;;;;;;;;;;4943545;28;20039;-79
2022/04/13 04:35:24;;;;;;;0.07;0.07;;;;;;;;;;4944052;29;20035;-79
2022/04/13 04:37:50;;;;;;;0.17;0.10;;;;;;;;;;4943032;28;20518;-79
2022/04/13 04:40:16;;;;;;;0.13;0.13;;;;;;;;;;4941469;28;20027;-80
2022/04/13 04:42:46;;;;;;;0.00;0.00;;;;;;;;;;4941706;28;20046;-79
2022/04/13 04:45:13;;;;;;;0.10;0.10;;;;;;;;;;4941314;29;20031;-79
2022/04/13 04:47:39;;;;;;;0.10;0.10;;;;;;;;;;4943196;29;20040;-80
2022/04/13 04:50:06;;;;;;;0.17;0.17;;;;;;;;;;4944896;28;20116;-80
2022/04/13 04:52:32;;;;;;;0.10;0.10;;;;;;;;;;4943836;29;20878;-79
2022/04/13 04:54:59;;;;;;;0.57;0.57;;;;;;;;;;4943615;29;20130;-79
2022/04/13 04:57:25;;;;;;;0.30;0.30;;;;;;;;;;4943223;29;20459;-79
2022/04/13 04:59:51;;;;;;;0.40;0.40;;;;;;;;;;4943324;29;20042;-79
2022/04/13 05:02:17;;;;;;;7.77;0.63;;;;;;;;;;4943845;28;20035;-79
2022/04/13 05:04:43;;;;;;;0.20;0.20;;;;;;;;;;4941784;29;20039;-79
2022/04/13 05:07:09;;;;;;;0.37;0.33;;;;;;;;;;4941040;28;20058;-79
2022/04/13 05:09:35;;;;;;;0.57;0.57;;;;;;;;;;4940755;28;20102;-79
2022/04/13 05:12:01;;;;;;;0.67;0.67;;;;;;;;;;4940545;29;20075;-79
2022/04/13 05:14:29;;;;;;;0.10;0.10;;;;;;;;;;4943153;28;20035;-80
2022/04/13 05:16:55;;;;;;;0.10;0.10;;;;;;;;;;4941723;29;20274;-78
2022/04/13 05:19:21;;;;;;;0.10;0.10;;;;;;;;;;4941193;28;20043;-78
2022/04/13 05:21:47;;;;;;;0.20;0.20;;;;;;;;;;4941109;29;20591;-79
2022/04/13 05:24:13;;;;;;;0.10;0.10;;;;;;;;;;4944958;28;20027;-80
2022/04/13 05:26:39;;;;;;;0.00;0.00;;;;;;;;;;4943630;28;20055;-80
2022/04/13 05:29:05;;;;;;;0.13;0.13;;;;;;;;;;4948458;28;20106;-80
2022/04/13 05:31:31;;;;;;;0.22;0.22;;;;;;;;;;4945496;29;20031;-80
2022/04/13 05:33:57;;;;;;;0.10;0.10;;;;;;;;;;4945368;28;20055;-80
2022/04/13 05:36:23;;;;;;;0.25;0.25;;;;;;;;;;4947275;29;20815;-80
2022/04/13 05:38:50;;;;;;;0.10;0.10;;;;;;;;;;4945583;29;20544;-81
2022/04/13 05:41:16;;;;;;;0.00;0.00;;;;;;;;;;4948515;29;20058;-79
2022/04/13 05:43:42;;;;;;;0.10;0.10;;;;;;;;;;4945747;29;20031;-80
2022/04/13 05:46:08;;;;;;;0.40;0.40;;;;;;;;;;4945045;28;20035;-79
2022/04/13 05:48:34;;;;;;;0.10;0.10;;;;;;;;;;4941600;29;20166;-80
2022/04/13 05:51:00;;;;;;;0.20;0.10;;;;;;;;;;4945300;29;20114;-79
2022/04/13 05:53:26;;;;;;;0.10;0.10;;;;;;;;;;4947463;29;20072;-80
2022/04/13 05:55:56;;;;;;;0.30;0.30;;;;;;;;;;4946501;28;20763;-79
2022/04/13 05:58:28;;;;;;;0.22;0.22;;;;;;;;;;4944750;28;20023;-80
2022/04/13 06:00:54;;;;;;;0.20;0.20;;;;;;;;;;4945063;29;20035;-78
2022/04/13 06:03:22;;;;;;;0.10;0.10;;;;;;;;;;4945180;28;20058;-79
2022/04/13 06:05:48;;;;;;;0.38;0.38;;;;;;;;;;4943933;28;20892;-80
2022/04/13 06:08:14;;;;;;;0.20;0.20;;;;;;;;;;4950986;28;20039;-79
2022/04/13 06:10:40;;;;;;;0.10;0.10;;;;;;;;;;4946543;28;20503;-78
2022/04/13 06:13:07;;;;;;;0.20;0.20;;;;;;;;;;4949845;28;20031;-79
2022/04/13 06:15:33;;;;;;;0.10;0.10;;;;;;;;;;4945851;28;20039;-78
2022/04/13 06:17:59;;;;;;;0.17;0.17;;;;;;;;;;4943350;28;20059;-79
2022/04/13 06:20:25;;;;;;;0.00;0.00;;;;;;;;;;4943549;28;20038;-79
2022/04/13 06:22:52;;;;;;;0.25;0.25;;;;;;;;;;4946378;28;20219;-79
2022/04/13 06:25:18;;;;;;;0.45;0.45;;;;;;;;;;4943718;28;20031;-82
2022/04/13 06:27:44;;;;;;;0.10;0.10;;;;;;;;;;4944790;28;20407;-78
2022/04/13 06:30:11;;;;;;;0.00;0.00;;;;;;;;;;4940991;29;20032;-78
2022/04/13 06:32:41;;;;;;;0.00;0.00;;;;;;;;;;4942023;29;20051;-78
2022/04/13 06:35:07;;;;;;;0.00;0.00;;;;;;;;;;4942373;28;20031;-79
2022/04/13 06:37:33;;;;;;;;;;;;;;;;;;4942881;29;20043;-79
2022/04/13 06:39:59;;;;;;;0.20;0.20;;;;;;;;;;4942471;28;19914;-79
2022/04/13 06:42:26;;;;;;;0.00;0.00;;;;;;;;;;4943050;28;20050;-79
2022/04/13 06:44:55;;;;;;;0.10;0.10;;;;;;;;;;4940701;28;20086;-79
2022/04/13 06:47:21;;;;;;;0.35;0.35;;;;;;;;;;4942801;29;20620;-79
2022/04/13 06:49:47;;;;;;;0.10;0.10;;;;;;;;;;4943661;28;20567;-79
2022/04/13 06:52:14;;;;;;;0.50;0.50;;;;;;;;;;4941437;29;20473;-79
2022/04/13 06:54:40;;;;;;;0.00;0.00;;;;;;;;;;4939953;29;20126;-78
2022/04/13 06:57:06;;;;;;;0.10;0.10;;;;;;;;;;4944697;29;20602;-80
2022/04/13 06:59:32;;;;;;;0.43;0.43;;;;;;;;;;4944402;29;20473;-79
2022/04/13 07:01:58;;;;;;;0.03;0.03;;;;;;;;;;4946947;28;20535;-79
2022/04/13 07:04:24;;;;;;;0.00;0.00;;;;;;;;;;4941910;28;20063;-80
2022/04/13 07:06:50;;;;;;;0.00;0.00;;;;;;;;;;4942527;29;20346;-80
2022/04/13 07:09:18;;;;;;;0.32;0.20;;;;;;;;;;4943779;28;20812;-79
2022/04/13 07:11:44;;;;;;;0.43;0.43;;;;;;;;;;4941775;29;20115;-78
2022/04/13 07:14:10;;;;;;;0.13;0.13;;;;;;;;;;4944205;28;20066;-79
2022/04/13 07:16:36;;;;;;;0.00;0.00;;;;;;;;;;4942766;28;20027;-79
2022/04/13 07:19:02;;;;;;;0.27;0.27;;;;;;;;;;4945313;28;20098;-79
2022/04/13 07:21:28;;;;;;;0.32;0.32;;;;;;;;;;4943714;28;20032;-78
2022/04/13 07:23:56;;;;;;;0.10;0.10;;;;;;;;;;4943269;29;20044;-78
2022/04/13 07:26:22;;;;;;;0.80;0.45;;;;;;;;;;4941022;29;20035;-79
2022/04/13 07:28:48;;;;;;;0.98;0.80;;;;;;;;;;4943444;29;20038;-79
2022/04/13 07:31:14;;;;;;;0.15;0.15;;;;;;;;;;4944342;28;20151;-79
2022/04/13 07:33:40;;;;;;;0.20;0.20;;;;;;;;;;4941984;29;20059;-79
2022/04/13 07:36:06;;;;;;;0.10;0.10;;;;;;;;;;4943418;29;20050;-79
2022/04/13 07:38:32;;;;;;;0.23;0.23;;;;;;;;;;4943967;29;20067;-79
2022/04/13 07:41:01;;;;;;;0.10;0.10;;;;;;;;;;4946660;28;20946;-79
2022/04/13 07:43:27;;;;;;;0.10;0.10;;;;;;;;;;4943439;29;20035;-79
2022/04/13 07:45:53;;;;;;;2.13;0.50;;;;;;;;;;4940950;29;20106;-79
2022/04/13 07:48:19;;;;;;;0.10;0.10;;;;;;;;;;4942739;29;20133;-79
2022/04/13 07:50:47;;;;;;;0.20;0.20;;;;;;;;;;4943598;28;20058;-79
2022/04/13 07:53:13;;;;;;;0.15;0.15;;;;;;;;;;4942894;29;20819;-79
2022/04/13 07:55:39;;;;;;;2.67;1.07;;;;;;;;;;4942655;29;20035;-79
2022/04/13 07:58:06;;;;;;;0.10;0.10;;;;;;;;;;4943457;29;20035;-79
2022/04/13 08:00:32;;;;;;;0.10;0.10;;;;;;;;;;4943096;28;20035;-80
2022/04/13 08:02:59;;;;;;;0.30;0.30;;;;;;;;;;4941032;29;20476;-79
2022/04/13 08:05:25;;;;;;;0.00;0.00;;;;;;;;;;4942707;29;20495;-80
2022/04/13 08:07:51;;;;;;;0.82;0.38;;;;;;;;;;4943736;28;20031;-79
2022/04/13 08:10:17;;;;;;;0.40;0.40;;;;;;;;;;4942486;29;20031;-79
2022/04/13 08:12:46;;;;;;;0.00;0.00;;;;;;;;;;4945113;28;20271;-80
2022/04/13 08:15:13;;;;;;;0.10;0.10;;;;;;;;;;4940612;28;20043;-79
2022/04/13 08:17:39;;;;;;;0.05;0.05;;;;;;;;;;4942801;28;20634;-80
2022/04/13 08:20:07;;;;;;;0.08;0.08;;;;;;;;;;4944105;29;20047;-79
2022/04/13 08:22:33;;;;;;;1.88;0.57;;;;;;;;;;4944797;28;20501;-79
2022/04/13 08:24:59;;;;;;;0.10;0.10;;;;;;;;;;4942195;29;20492;-80
2022/04/13 08:27:25;;;;;;;0.10;0.10;;;;;;;;;;4942320;29;20511;-80
2022/04/13 08:29:51;;;;;;;0.13;0.13;;;;;;;;;;4942451;29;20036;-79
2022/04/13 08:32:18;;;;;;;0.00;0.00;;;;;;;;;;4943691;29;20038;-80
2022/04/13 08:34:45;;;;;;;0.17;0.17;;;;;;;;;;4941112;29;20056;-79
2022/04/13 08:37:11;;;;;;;0.75;0.73;;;;;;;;;;4943783;29;20487;-79
2022/04/13 08:39:39;;;;;;;0.10;0.10;;;;;;;;;;4942510;29;20028;-79
2022/04/13 08:42:08;;;;;;;0.10;0.10;;;;;;;;;;4942489;28;20035;-80
2022/04/13 08:44:46;;;;;;;0.08;0.08;;;;;;;;;;4941288;29;20039;-79
2022/04/13 08:47:13;;;;;;;1.45;0.30;;;;;;;;;;4941490;29;20042;-79
2022/04/13 08:49:40;;;;;;;0.10;0.10;;;;;;;;;;4942376;29;20043;-79
2022/04/13 08:52:06;;;;;;;;;;;;;;;;;;4942980;28;20055;-79
2022/04/13 08:54:35;;;;;;;0.38;0.38;;;;;;;;;;4941605;28;19961;-79
2022/04/13 08:57:04;;;;;;;0.00;0.00;;;;;;;;;;4943134;29;20093;-80
2022/04/13 08:59:42;;;;;;;11.85;0.90;;;;;;;;;;4944442;28;20916;-79
2022/04/13 09:02:08;;;;;;;0.43;0.43;;;;;;;;;;4944231;28;20035;-79
2022/04/13 09:04:37;;;;;;;1.10;0.77;;;;;;;;;;4939572;29;20035;-79
2022/04/13 09:07:03;;;;;;;0.05;0.05;;;;;;;;;;4941508;28;20045;-79
2022/04/13 09:09:37;;;;;;;0.30;0.30;;;;;;;;;;4941336;28;20591;-79
2022/04/13 09:12:04;;;;;;;0.10;0.10;;;;;;;;;;4943327;28;20035;-79
2022/04/13 09:14:30;;;;;;;0.15;0.15;;;;;;;;;;4940254;29;20039;-79
2022/04/13 09:16:57;;;;;;;0.13;0.13;;;;;;;;;;4944757;28;20039;-79
2022/04/13 09:19:26;;;;;;;2.10;0.60;;;;;;;;;;4942744;29;20178;-79
2022/04/13 09:21:52;;;;;;;0.20;0.20;;;;;;;;;;4942644;29;20062;-79
2022/04/13 09:24:19;;;;;;;0.10;0.10;;;;;;;;;;4942075;28;20504;-79
2022/04/13 09:26:46;;;;;;;0.55;0.52;;;;;;;;;;4942378;29;20038;-80
2022/04/13 09:29:12;;;;;;;0.38;0.38;;;;;;;;;;4941082;29;20523;-79
2022/04/13 09:31:39;;;;;;;0.00;0.00;;;;;;;;;;4942325;28;20031;-79
2022/04/13 09:34:05;;;;;;;0.35;0.35;;;;;;;;;;4939933;29;20066;-78
2022/04/13 09:36:31;;;;;;;0.73;0.63;;;;;;;;;;4942137;29;20940;-79
2022/04/13 09:38:57;;;;;;;0.20;0.20;;;;;;;;;;4943122;28;20044;-80
2022/04/13 09:41:33;;;;;;;0.10;0.10;;;;;;;;;;4943497;29;20032;-79
2022/04/13 09:43:59;;;;;;;0.05;0.05;;;;;;;;;;4941213;28;20939;-80
2022/04/13 09:46:29;;;;;;;0.10;0.10;;;;;;;;;;4954603;28;20023;-79
2022/04/13 09:49:14;;;;;;;0.68;0.57;;;;;;;;;;4941332;29;20574;-78
2022/04/13 09:51:42;;;;;;;0.00;0.00;;;;;;;;;;4943252;29;20106;-79
2022/04/13 09:54:09;;;;;;;0.00;0.00;;;;;;;;;;4941644;29;20035;-79
2022/04/13 09:56:35;;;;;;;;;;;;;;;;;;4943046;29;20339;-79
2022/04/13 09:59:01;;;;;;;0.05;0.05;;;;;;;;;;4943399;28;19915;-77
2022/04/13 10:01:28;;;;;;;0.33;0.30;;;;;;;;;;4941883;28;20035;-79
2022/04/13 10:03:57;;;;;;;1.35;0.95;;;;;;;;;;4938135;29;20471;-78
2022/04/13 10:06:27;;;;;;;0.10;0.10;;;;;;;;;;4940902;29;20563;-79
2022/04/13 10:09:08;;;;;;;0.13;0.13;;;;;;;;;;4940963;29;20886;-80
2022/04/13 10:11:35;;;;;;;0.20;0.20;;;;;;;;;;4939910;29;20111;-79
2022/04/13 10:14:02;;;;;;;0.10;0.10;;;;;;;;;;4941236;28;20043;-79
2022/04/13 10:16:31;;;;;;;0.00;0.00;;;;;;;;;;4945969;29;20039;-79
2022/04/13 10:18:59;;;;;;;0.30;0.30;;;;;;;;;;4944446;29;20067;-79
2022/04/13 10:21:40;;;;;;;0.45;0.45;;;;;;;;;;4947056;29;20129;-80
2022/04/13 10:24:06;;;;;;;0.20;0.20;;;;;;;;;;4943765;28;20042;-79
2022/04/13 10:26:33;;;;;;;0.10;0.10;;;;;;;;;;4945191;29;20046;-79
2022/04/13 10:28:59;;;;;;;0.10;0.10;;;;;;;;;;4942563;28;20062;-79
2022/04/13 10:31:25;;;;;;;0.07;0.07;;;;;;;;;;4944545;29;20122;-81
2022/04/13 10:33:55;;;;;;;0.10;0.10;;;;;;;;;;4941811;29;20127;-79
2022/04/13 10:36:21;;;;;;;0.08;0.08;;;;;;;;;;4944411;28;20046;-80
2022/04/13 10:38:47;;;;;;;0.10;0.10;;;;;;;;;;4944729;29;20035;-79
2022/04/13 10:41:16;;;;;;;0.10;0.10;;;;;;;;;;4942580;29;20074;-80
2022/04/13 10:43:44;;;;;;;0.03;0.03;;;;;;;;;;4944290;29;20479;-81
2022/04/13 10:46:10;;;;;;;0.10;0.10;;;;;;;;;;4943715;28;20031;-81
2022/04/13 10:48:39;;;;;;;0.20;0.20;;;;;;;;;;4943646;29;20075;-80
2022/04/13 10:51:10;;;;;;;1.00;0.85;;;;;;;;;;4941314;29;20023;-79
2022/04/13 10:53:55;;;;;;;0.22;0.22;;;;;;;;;;4939577;29;20126;-79
2022/04/13 10:56:21;;;;;;;0.88;0.88;;;;;;;;;;4938191;28;20030;-80
2022/04/13 10:59:05;;;;;;;0.25;0.15;;;;;;;;;;4939262;29;20295;-80
2022/04/13 11:01:36;;;;;;;0.10;0.10;;;;;;;;;;4939702;28;20591;-80
2022/04/13 11:04:02;;;;;;;0.10;0.10;;;;;;;;;;4938210;29;20025;-80
2022/04/13 11:06:28;;;;;;;0.10;0.10;;;;;;;;;;4938941;29;20078;-80
2022/04/13 11:08:59;;;;;;;0.10;0.10;;;;;;;;;;4935958;28;20046;-80
2022/04/13 11:11:26;;;;;;;0.88;0.20;;;;;;;;;;4935519;29;20031;-79
2022/04/13 11:13:53;;;;;;;0.10;0.10;;;;;;;;;;4941268;29;20682;-79
2022/04/13 11:16:20;;;;;;;0.10;0.10;;;;;;;;;;4937130;29;20031;-79
2022/04/13 11:19:06;;;;;;;0.10;0.10;;;;;;;;;;4940154;29;20299;-80
2022/04/13 11:21:32;;;;;;;0.50;0.50;;;;;;;;;;4929931;29;20085;-78
2022/04/13 11:23:59;;;;;;;0.20;0.20;;;;;;;;;;4935633;28;20047;-79
2022/04/13 11:26:26;;;;;;;0.20;0.20;;;;;;;;;;4939384;29;20035;-79
2022/04/13 11:29:11;;;;;;;0.73;0.70;;;;;;;;;;4933301;29;20044;-79
2022/04/13 11:32:00;;;;;;;0.10;0.10;;;;;;;;;;4938524;29;20071;-79
2022/04/13 11:34:30;;;;;;;2.55;1.33;;;;;;;;;;4934637;29;20126;-79
2022/04/13 11:37:03;;;;;;;0.25;0.25;;;;;;;;;;4935304;29;20067;-79
2022/04/13 11:40:03;;;;;;;0.00;0.00;;;;;;;;;;4936851;29;20411;-79
2022/04/13 11:42:32;;;;;;;2.35;1.40;;;;;;;;;;4928817;28;20043;-79
2022/04/13 11:45:01;;;;;;;0.00;0.00;;;;;;;;;;4937192;29;20971;-80
2022/04/13 11:47:43;;;;;;;0.32;0.32;;;;;;;;;;4937318;29;20031;-79
2022/04/13 11:50:18;;;;;;;0.20;0.20;;;;;;;;;;4940957;29;20039;-79
2022/04/13 11:52:49;;;;;;;0.10;0.10;;;;;;;;;;4938546;29;20138;-81
2022/04/13 11:55:17;;;;;;;2.00;0.60;;;;;;;;;;4937409;29;20039;-81
2022/04/13 11:57:58;;;;;;;1.95;1.58;;;;;;;;;;4936531;29;20041;-79
2022/04/13 12:00:39;;;;;;;3.67;1.88;;;;;;;;;;4932158;29;20024;-79
2022/04/13 12:03:07;;;;;;;0.60;0.55;;;;;;;;;;4940625;29;20078;-80
2022/04/13 12:05:33;;;;;;;0.03;0.03;;;;;;;;;;4937952;29;20065;-80
2022/04/13 12:08:00;;;;;;;1.30;1.05;;;;;;;;;;4933704;29;20043;-79
2022/04/13 12:10:26;;;;;;;0.95;0.95;;;;;;;;;;4938312;29;20043;-79
2022/04/13 12:12:52;;;;;;;0.25;0.25;;;;;;;;;;4935395;29;20039;-79
2022/04/13 12:15:19;;;;;;;0.30;0.30;;;;;;;;;;4930390;29;20039;-79
2022/04/13 12:17:46;;;;;;;0.30;0.30;;;;;;;;;;4926654;29;20098;-79
2022/04/13 12:20:28;;;;;;;1.17;1.08;;;;;;;;;;4928635;29;20043;-79
2022/04/13 12:22:54;;;;;;;0.45;0.45;;;;;;;;;;4928184;29;20039;-79
2022/04/13 12:25:20;;;;;;;0.20;0.20;;;;;;;;;;4928399;29;20035;-79
2022/04/13 12:28:02;;;;;;;1.50;1.40;;;;;;;;;;4928366;29;20039;-79
2022/04/13 12:30:28;;;;;;;0.10;0.10;;;;;;;;;;4928073;29;20042;-79
2022/04/13 12:32:54;;;;;;;0.73;0.55;;;;;;;;;;4927899;29;20023;-79
2022/04/13 12:35:20;;;;;;;0.32;0.32;;;;;;;;;;4928109;29;20046;-79
2022/04/13 12:37:53;;;;;;;0.57;0.57;;;;;;;;;;4931571;28;20023;-79
2022/04/13 12:40:23;;;;;;;0.40;0.40;;;;;;;;;;4931140;29;20641;-79
2022/04/13 12:42:50;;;;;;;0.30;0.30;;;;;;;;;;4928877;29;20051;-79
2022/04/13 12:45:16;;;;;;;0.10;0.10;;;;;;;;;;4927196;29;20031;-79
2022/04/13 12:47:45;;;;;;;0.30;0.30;;;;;;;;;;4928235;29;20028;-80
2022/04/13 12:50:11;;;;;;;0.10;0.10;;;;;;;;;;4928182;29;20548;-79
2022/04/13 12:52:37;;;;;;;0.25;0.25;;;;;;;;;;4928327;29;20027;-79
2022/04/13 12:55:04;;;;;;;0.13;0.13;;;;;;;;;;4931411;29;20039;-79
2022/04/13 12:57:30;;;;;;;0.90;0.90;;;;;;;;;;4931381;29;20843;-79
2022/04/13 12:59:56;;;;;;;0.13;0.13;;;;;;;;;;4927016;29;20028;-79
2022/04/13 13:02:22;;;;;;;0.15;0.15;;;;;;;;;;4930686;29;20035;-79
2022/04/13 13:04:49;;;;;;;0.00;0.00;;;;;;;;;;4930855;28;20028;-79
2022/04/13 13:07:15;;;;;;;0.25;0.25;;;;;;;;;;4931928;28;20394;-79
2022/04/13 13:09:43;;;;;;;0.40;0.40;;;;;;;;;;4934012;29;20614;-79
2022/04/13 13:12:13;;;;;;;0.57;0.57;;;;;;;;;;4942213;28;20031;-78
2022/04/13 13:14:51;;;;;;;0.43;0.40;;;;;;;;;;4942083;28;21405;-79
2022/04/13 13:17:30;;;;;;;0.10;0.10;;;;;;;;;;4943718;29;20901;-79
2022/04/13 13:20:06;;;;;;;0.30;0.30;;;;;;;;;;4943086;29;20043;-79
2022/04/13 13:22:38;;;;;;;0.20;0.20;;;;;;;;;;4933888;29;20034;-79
2022/04/13 13:25:05;;;;;;;0.40;0.40;;;;;;;;;;4928012;29;20062;-79
2022/04/13 13:27:36;;;;;;;0.10;0.10;;;;;;;;;;4925767;29;20031;-79
2022/04/13 13:30:05;;;;;;;0.57;0.57;;;;;;;;;;4926730;29;20054;-79
2022/04/13 13:32:35;;;;;;;0.13;0.13;;;;;;;;;;4926831;29;20035;-79
2022/04/13 13:35:03;;;;;;;0.50;0.45;;;;;;;;;;4931036;28;20035;-79
2022/04/13 13:37:44;;;;;;;0.20;0.20;;;;;;;;;;4942456;29;20082;-79
2022/04/13 13:40:29;;;;;;;0.20;0.20;;;;;;;;;;4941069;29;20035;-78
2022/04/13 13:42:55;;;;;;;0.63;0.63;;;;;;;;;;4942443;28;20032;-80
2022/04/13 13:45:21;;;;;;;0.50;0.50;;;;;;;;;;4943553;28;20038;-79
2022/04/13 13:47:47;;;;;;;0.20;0.20;;;;;;;;;;4943513;28;20106;-79
2022/04/13 13:50:13;;;;;;;0.30;0.30;;;;;;;;;;4948081;29;20027;-78
2022/04/13 13:52:40;;;;;;;4.45;0.63;;;;;;;;;;4947294;28;20419;-79
2022/04/13 13:55:06;;;;;;;0.10;0.10;;;;;;;;;;4947456;28;20531;-79
2022/04/13 13:57:32;;;;;;;0.10;0.10;;;;;;;;;;4944781;28;20035;-79
2022/04/13 13:59:59;;;;;;;0.10;0.10;;;;;;;;;;4932276;29;20043;-79
2022/04/13 14:02:25;;;;;;;0.65;0.63;;;;;;;;;;4947365;29;20039;-79
2022/04/13 14:04:51;;;;;;;0.10;0.10;;;;;;;;;;4946441;28;20035;-79
2022/04/13 14:07:18;;;;;;;0.63;0.57;;;;;;;;;;4945079;28;20090;-79
2022/04/13 14:09:44;;;;;;;2.70;1.05;;;;;;;;;;4946128;28;20047;-79
2022/04/13 14:12:10;;;;;;;0.70;0.35;;;;;;;;;;4939342;29;20035;-78
2022/04/13 14:14:36;;;;;;;4.55;0.85;;;;;;;;;;4927130;29;20083;-78
2022/04/13 14:17:02;;;;;;;0.10;0.10;;;;;;;;;;4936362;29;20055;-78
2022/04/13 14:19:33;;;;;;;0.20;0.20;;;;;;;;;;4946756;28;20043;-80
2022/04/13 14:21:59;;;;;;;8.52;0.55;;;;;;;;;;4945044;28;20696;-79
2022/04/13 14:24:25;;;;;;;0.00;0.00;;;;;;;;;;4944668;29;20027;-79
2022/04/13 14:26:51;;;;;;;0.35;0.35;;;;;;;;;;4945785;29;20035;-79
2022/04/13 14:29:17;;;;;;;0.10;0.10;;;;;;;;;;4947947;29;20031;-79
2022/04/13 14:31:44;;;;;;;0.10;0.10;;;;;;;;;;4946127;29;20027;-79
2022/04/13 14:34:10;;;;;;;0.10;0.10;;;;;;;;;;4945388;28;20321;-80
2022/04/13 14:36:37;;;;;;;0.10;0.10;;;;;;;;;;4945677;28;20511;-79
2022/04/13 14:39:04;;;;;;;0.20;0.20;;;;;;;;;;4944054;29;20058;-79
2022/04/13 14:41:31;;;;;;;0.15;0.15;;;;;;;;;;4946760;28;20155;-79
2022/04/13 14:43:57;;;;;;;0.10;0.10;;;;;;;;;;4947565;28;20030;-79
2022/04/13 14:46:23;;;;;;;0.00;0.00;;;;;;;;;;4943982;28;20392;-79
2022/04/13 14:48:49;;;;;;;0.00;0.00;;;;;;;;;;4944872;29;20102;-79
2022/04/13 14:51:15;;;;;;;0.10;0.10;;;;;;;;;;4945356;29;20428;-79